RJSI(METAR)
02/19 09:00
METAR RJSI 190000Z 18005KT 9999 FEW030 SCT130 BKN150 01/M02 Q1026
RMK 1CU030 3AC130 6AC150 A3032=
戻る
トップページへ戻る
IMOC Co,.Ltd.